sensor_id;sensor_type;location;lat;lon;timestamp;temperature;humidity
16198;DHT22;8206;51.440;6.914;2022-10-30T00:00:47;17.90;1.00
16198;DHT22;8206;51.440;6.914;2022-10-30T00:03:15;17.90;1.00
16198;DHT22;8206;51.440;6.914;2022-10-30T00:05:42;17.90;1.00
16198;DHT22;8206;51.440;6.914;2022-10-30T00:08:10;17.90;1.00
16198;DHT22;8206;51.440;6.914;2022-10-30T00:10:38;17.90;1.00
16198;DHT22;8206;51.440;6.914;2022-10-30T00:13:05;17.90;1.00
16198;DHT22;8206;51.440;6.914;2022-10-30T00:15:32;17.90;1.00
16198;DHT22;8206;51.440;6.914;2022-10-30T00:18:01;17.80;1.00
16198;DHT22;8206;51.440;6.914;2022-10-30T00:20:28;17.90;1.00
16198;DHT22;8206;51.440;6.914;2022-10-30T00:22:55;17.80;1.00
16198;DHT22;8206;51.440;6.914;2022-10-30T00:25:22;17.80;1.00
16198;DHT22;8206;51.440;6.914;2022-10-30T00:27:49;17.80;1.00
16198;DHT22;8206;51.440;6.914;2022-10-30T00:30:15;17.80;1.00
16198;DHT22;8206;51.440;6.914;2022-10-30T00:32:43;17.80;1.00
16198;DHT22;8206;51.440;6.914;2022-10-30T00:35:11;17.80;1.00
16198;DHT22;8206;51.440;6.914;2022-10-30T00:37:38;17.80;1.00
16198;DHT22;8206;51.440;6.914;2022-10-30T00:40:06;17.80;1.00
16198;DHT22;8206;51.440;6.914;2022-10-30T00:42:33;17.80;1.00
16198;DHT22;8206;51.440;6.914;2022-10-30T00:45:00;17.70;1.00
16198;DHT22;8206;51.440;6.914;2022-10-30T00:47:30;17.70;1.00
16198;DHT22;8206;51.440;6.914;2022-10-30T00:50:00;17.70;1.00
16198;DHT22;8206;51.440;6.914;2022-10-30T00:52:32;17.60;1.00
16198;DHT22;8206;51.440;6.914;2022-10-30T00:55:03;17.60;1.00
16198;DHT22;8206;51.440;6.914;2022-10-30T00:57:31;17.60;1.00
16198;DHT22;8206;51.440;6.914;2022-10-30T00:59:58;17.50;1.00
16198;DHT22;8206;51.440;6.914;2022-10-30T01:02:26;17.40;1.00
16198;DHT22;8206;51.440;6.914;2022-10-30T01:04:53;17.40;1.00
16198;DHT22;8206;51.440;6.914;2022-10-30T01:07:20;17.40;1.00
16198;DHT22;8206;51.440;6.914;2022-10-30T01:09:49;17.40;1.00
16198;DHT22;8206;51.440;6.914;2022-10-30T01:12:15;17.30;1.00
16198;DHT22;8206;51.440;6.914;2022-10-30T01:14:46;17.30;1.00
16198;DHT22;8206;51.440;6.914;2022-10-30T01:17:55;17.20;1.00
16198;DHT22;8206;51.440;6.914;2022-10-30T01:20:46;17.10;1.00
16198;DHT22;8206;51.440;6.914;2022-10-30T01:23:25;17.10;1.00
16198;DHT22;8206;51.440;6.914;2022-10-30T01:26:03;17.10;1.00
16198;DHT22;8206;51.440;6.914;2022-10-30T01:28:43;17.10;1.00
16198;DHT22;8206;51.440;6.914;2022-10-30T01:31:23;17.00;1.00
16198;DHT22;8206;51.440;6.914;2022-10-30T01:34:07;17.10;1.00
16198;DHT22;8206;51.440;6.914;2022-10-30T01:36:38;17.00;1.00
16198;DHT22;8206;51.440;6.914;2022-10-30T01:39:12;17.00;1.00
16198;DHT22;8206;51.440;6.914;2022-10-30T01:41:40;16.90;1.00
16198;DHT22;8206;51.440;6.914;2022-10-30T01:44:11;16.90;1.00
16198;DHT22;8206;51.440;6.914;2022-10-30T01:46:48;16.90;1.00
16198;DHT22;8206;51.440;6.914;2022-10-30T01:49:44;16.80;1.00
16198;DHT22;8206;51.440;6.914;2022-10-30T01:52:18;16.70;1.00
16198;DHT22;8206;51.440;6.914;2022-10-30T01:54:55;16.60;1.00
16198;DHT22;8206;51.440;6.914;2022-10-30T01:57:33;16.60;1.00
16198;DHT22;8206;51.440;6.914;2022-10-30T02:00:03;16.50;1.00
16198;DHT22;8206;51.440;6.914;2022-10-30T02:02:31;16.50;1.00
16198;DHT22;8206;51.440;6.914;2022-10-30T02:04:58;16.40;1.00
16198;DHT22;8206;51.440;6.914;2022-10-30T02:07:25;16.30;1.00
16198;DHT22;8206;51.440;6.914;2022-10-30T02:09:52;16.30;1.00
16198;DHT22;8206;51.440;6.914;2022-10-30T02:12:20;16.30;1.00
16198;DHT22;8206;51.440;6.914;2022-10-30T02:14:51;16.20;1.00
16198;DHT22;8206;51.440;6.914;2022-10-30T02:17:20;16.20;1.00
16198;DHT22;8206;51.440;6.914;2022-10-30T02:19:47;16.20;1.00
16198;DHT22;8206;51.440;6.914;2022-10-30T02:22:15;16.20;1.00
16198;DHT22;8206;51.440;6.914;2022-10-30T02:24:42;16.10;1.00
16198;DHT22;8206;51.440;6.914;2022-10-30T02:27:09;16.20;1.00
16198;DHT22;8206;51.440;6.914;2022-10-30T02:29:36;16.10;1.00
16198;DHT22;8206;51.440;6.914;2022-10-30T02:32:03;16.00;1.00
16198;DHT22;8206;51.440;6.914;2022-10-30T02:34:30;16.00;1.00
16198;DHT22;8206;51.440;6.914;2022-10-30T02:36:56;16.00;1.00
16198;DHT22;8206;51.440;6.914;2022-10-30T02:39:24;16.00;1.00
16198;DHT22;8206;51.440;6.914;2022-10-30T02:41:51;16.00;1.00
16198;DHT22;8206;51.440;6.914;2022-10-30T02:44:18;16.00;1.00
16198;DHT22;8206;51.440;6.914;2022-10-30T02:46:45;16.00;1.00
16198;DHT22;8206;51.440;6.914;2022-10-30T02:49:12;16.00;1.00
16198;DHT22;8206;51.440;6.914;2022-10-30T02:51:38;15.90;1.00
16198;DHT22;8206;51.440;6.914;2022-10-30T02:54:05;15.90;1.00
16198;DHT22;8206;51.440;6.914;2022-10-30T02:56:33;15.90;1.00
16198;DHT22;8206;51.440;6.914;2022-10-30T02:59:00;15.80;1.00
16198;DHT22;8206;51.440;6.914;2022-10-30T03:01:26;15.90;1.00
16198;DHT22;8206;51.440;6.914;2022-10-30T03:03:53;15.90;1.00
16198;DHT22;8206;51.440;6.914;2022-10-30T03:06:20;15.80;1.00
16198;DHT22;8206;51.440;6.914;2022-10-30T03:08:47;15.80;1.00
16198;DHT22;8206;51.440;6.914;2022-10-30T03:11:15;15.80;1.00
16198;DHT22;8206;51.440;6.914;2022-10-30T03:13:45;15.80;1.00
16198;DHT22;8206;51.440;6.914;2022-10-30T03:16:14;15.80;1.00
16198;DHT22;8206;51.440;6.914;2022-10-30T03:18:41;15.90;1.00
16198;DHT22;8206;51.440;6.914;2022-10-30T03:21:11;15.80;1.00
16198;DHT22;8206;51.440;6.914;2022-10-30T03:23:38;15.90;1.00
16198;DHT22;8206;51.440;6.914;2022-10-30T03:26:05;15.90;1.00
16198;DHT22;8206;51.440;6.914;2022-10-30T03:28:32;15.90;1.00
16198;DHT22;8206;51.440;6.914;2022-10-30T03:31:02;15.90;1.00
16198;DHT22;8206;51.440;6.914;2022-10-30T03:33:29;15.90;1.00
16198;DHT22;8206;51.440;6.914;2022-10-30T03:35:56;15.90;1.00
16198;DHT22;8206;51.440;6.914;2022-10-30T03:38:23;15.90;1.00
16198;DHT22;8206;51.440;6.914;2022-10-30T03:40:50;15.80;1.00
16198;DHT22;8206;51.440;6.914;2022-10-30T03:43:17;15.80;1.00
16198;DHT22;8206;51.440;6.914;2022-10-30T03:45:49;15.80;1.00
16198;DHT22;8206;51.440;6.914;2022-10-30T03:48:18;15.80;1.00
16198;DHT22;8206;51.440;6.914;2022-10-30T03:50:46;15.70;1.00
16198;DHT22;8206;51.440;6.914;2022-10-30T03:53:14;15.60;1.00
16198;DHT22;8206;51.440;6.914;2022-10-30T03:55:41;15.50;1.00
16198;DHT22;8206;51.440;6.914;2022-10-30T03:58:07;15.40;1.00
16198;DHT22;8206;51.440;6.914;2022-10-30T04:00:34;15.40;1.00
16198;DHT22;8206;51.440;6.914;2022-10-30T04:03:05;15.30;1.00
16198;DHT22;8206;51.440;6.914;2022-10-30T04:05:34;15.20;1.00
16198;DHT22;8206;51.440;6.914;2022-10-30T04:08:02;15.10;1.00
16198;DHT22;8206;51.440;6.914;2022-10-30T04:10:29;15.00;1.00
16198;DHT22;8206;51.440;6.914;2022-10-30T04:12:59;15.00;1.00
16198;DHT22;8206;51.440;6.914;2022-10-30T04:15:27;14.90;1.00
16198;DHT22;8206;51.440;6.914;2022-10-30T04:17:53;14.90;1.00
16198;DHT22;8206;51.440;6.914;2022-10-30T04:20:22;14.80;1.00
16198;DHT22;8206;51.440;6.914;2022-10-30T04:22:54;14.70;1.00
16198;DHT22;8206;51.440;6.914;2022-10-30T04:25:22;14.70;1.00
16198;DHT22;8206;51.440;6.914;2022-10-30T04:27:49;14.60;1.00
16198;DHT22;8206;51.440;6.914;2022-10-30T04:30:17;14.60;1.00
16198;DHT22;8206;51.440;6.914;2022-10-30T04:32:46;14.60;1.00
16198;DHT22;8206;51.440;6.914;2022-10-30T04:35:13;14.60;1.00
16198;DHT22;8206;51.440;6.914;2022-10-30T04:37:40;14.50;1.00
16198;DHT22;8206;51.440;6.914;2022-10-30T04:40:09;14.50;1.00
16198;DHT22;8206;51.440;6.914;2022-10-30T04:42:36;14.50;1.00
16198;DHT22;8206;51.440;6.914;2022-10-30T04:45:03;14.30;1.00
16198;DHT22;8206;51.440;6.914;2022-10-30T04:47:30;14.40;1.00
16198;DHT22;8206;51.440;6.914;2022-10-30T04:49:56;14.30;1.00
16198;DHT22;8206;51.440;6.914;2022-10-30T04:52:23;14.30;1.00
16198;DHT22;8206;51.440;6.914;2022-10-30T04:54:50;14.30;1.00
16198;DHT22;8206;51.440;6.914;2022-10-30T04:57:18;14.30;1.00
16198;DHT22;8206;51.440;6.914;2022-10-30T04:59:45;14.30;1.00
16198;DHT22;8206;51.440;6.914;2022-10-30T05:02:11;14.30;1.00
16198;DHT22;8206;51.440;6.914;2022-10-30T05:04:38;14.40;1.00
16198;DHT22;8206;51.440;6.914;2022-10-30T05:07:05;14.40;1.00
16198;DHT22;8206;51.440;6.914;2022-10-30T05:09:32;14.40;1.00
16198;DHT22;8206;51.440;6.914;2022-10-30T05:11:59;14.40;1.00
16198;DHT22;8206;51.440;6.914;2022-10-30T05:14:28;14.30;1.00
16198;DHT22;8206;51.440;6.914;2022-10-30T05:16:55;14.30;1.00
16198;DHT22;8206;51.440;6.914;2022-10-30T05:19:22;14.30;1.00
16198;DHT22;8206;51.440;6.914;2022-10-30T05:21:49;14.30;1.00
16198;DHT22;8206;51.440;6.914;2022-10-30T05:24:16;14.30;1.00
16198;DHT22;8206;51.440;6.914;2022-10-30T05:26:43;14.30;1.00
16198;DHT22;8206;51.440;6.914;2022-10-30T05:29:11;14.30;1.00
16198;DHT22;8206;51.440;6.914;2022-10-30T05:31:39;14.30;1.00
16198;DHT22;8206;51.440;6.914;2022-10-30T05:34:05;14.30;1.00
16198;DHT22;8206;51.440;6.914;2022-10-30T05:36:32;14.30;1.00
16198;DHT22;8206;51.440;6.914;2022-10-30T05:38:59;14.30;1.00
16198;DHT22;8206;51.440;6.914;2022-10-30T05:41:27;14.20;1.00
16198;DHT22;8206;51.440;6.914;2022-10-30T05:43:54;14.30;1.00
16198;DHT22;8206;51.440;6.914;2022-10-30T05:46:20;14.20;1.00
16198;DHT22;8206;51.440;6.914;2022-10-30T05:48:48;14.20;1.00
16198;DHT22;8206;51.440;6.914;2022-10-30T05:51:15;14.20;1.00
16198;DHT22;8206;51.440;6.914;2022-10-30T05:53:42;14.30;1.00
16198;DHT22;8206;51.440;6.914;2022-10-30T05:56:09;14.20;1.00
16198;DHT22;8206;51.440;6.914;2022-10-30T05:58:35;14.20;1.00
16198;DHT22;8206;51.440;6.914;2022-10-30T06:01:04;14.10;1.00
16198;DHT22;8206;51.440;6.914;2022-10-30T06:03:31;14.10;1.00
16198;DHT22;8206;51.440;6.914;2022-10-30T06:05:59;14.00;1.00
16198;DHT22;8206;51.440;6.914;2022-10-30T06:08:26;14.00;1.00
16198;DHT22;8206;51.440;6.914;2022-10-30T06:10:53;14.00;1.00
16198;DHT22;8206;51.440;6.914;2022-10-30T06:13:20;13.90;1.00
16198;DHT22;8206;51.440;6.914;2022-10-30T06:15:46;13.90;1.00
16198;DHT22;8206;51.440;6.914;2022-10-30T06:18:13;13.80;1.00
16198;DHT22;8206;51.440;6.914;2022-10-30T06:20:40;13.80;1.00
16198;DHT22;8206;51.440;6.914;2022-10-30T06:23:09;13.80;1.00
16198;DHT22;8206;51.440;6.914;2022-10-30T06:25:36;13.70;1.00
16198;DHT22;8206;51.440;6.914;2022-10-30T06:28:03;13.70;1.00
16198;DHT22;8206;51.440;6.914;2022-10-30T06:30:30;13.70;1.00
16198;DHT22;8206;51.440;6.914;2022-10-30T06:32:57;13.60;1.00
16198;DHT22;8206;51.440;6.914;2022-10-30T06:35:24;13.70;1.00
16198;DHT22;8206;51.440;6.914;2022-10-30T06:37:51;13.70;1.00
16198;DHT22;8206;51.440;6.914;2022-10-30T06:40:21;13.70;1.00
16198;DHT22;8206;51.440;6.914;2022-10-30T06:42:49;13.70;1.00
16198;DHT22;8206;51.440;6.914;2022-10-30T06:45:18;13.70;1.00
16198;DHT22;8206;51.440;6.914;2022-10-30T06:47:45;13.80;1.00
16198;DHT22;8206;51.440;6.914;2022-10-30T06:50:16;13.80;1.00
16198;DHT22;8206;51.440;6.914;2022-10-30T06:52:43;13.80;1.00
16198;DHT22;8206;51.440;6.914;2022-10-30T06:55:10;13.90;1.00
16198;DHT22;8206;51.440;6.914;2022-10-30T06:57:38;13.90;1.00
16198;DHT22;8206;51.440;6.914;2022-10-30T07:00:06;14.00;1.00
16198;DHT22;8206;51.440;6.914;2022-10-30T07:02:33;14.00;1.00
16198;DHT22;8206;51.440;6.914;2022-10-30T07:05:00;14.10;1.00
16198;DHT22;8206;51.440;6.914;2022-10-30T07:07:27;14.20;1.00
16198;DHT22;8206;51.440;6.914;2022-10-30T07:09:54;14.30;1.00
16198;DHT22;8206;51.440;6.914;2022-10-30T07:12:21;14.40;1.00
16198;DHT22;8206;51.440;6.914;2022-10-30T07:14:49;14.40;1.00
16198;DHT22;8206;51.440;6.914;2022-10-30T07:17:16;14.50;1.00
16198;DHT22;8206;51.440;6.914;2022-10-30T07:19:42;14.60;1.00
16198;DHT22;8206;51.440;6.914;2022-10-30T07:22:09;14.60;1.00
16198;DHT22;8206;51.440;6.914;2022-10-30T07:24:36;14.70;1.00
16198;DHT22;8206;51.440;6.914;2022-10-30T07:27:02;14.80;1.00
16198;DHT22;8206;51.440;6.914;2022-10-30T07:29:29;14.90;1.00
16198;DHT22;8206;51.440;6.914;2022-10-30T07:31:57;14.90;1.00
16198;DHT22;8206;51.440;6.914;2022-10-30T07:34:24;14.90;1.00
16198;DHT22;8206;51.440;6.914;2022-10-30T07:36:51;15.00;1.00
16198;DHT22;8206;51.440;6.914;2022-10-30T07:39:17;15.00;1.00
16198;DHT22;8206;51.440;6.914;2022-10-30T07:41:44;15.10;1.00
16198;DHT22;8206;51.440;6.914;2022-10-30T07:44:11;15.20;1.00
16198;DHT22;8206;51.440;6.914;2022-10-30T07:46:38;15.20;1.00
16198;DHT22;8206;51.440;6.914;2022-10-30T07:49:06;15.30;1.00
16198;DHT22;8206;51.440;6.914;2022-10-30T07:51:32;15.30;1.00
16198;DHT22;8206;51.440;6.914;2022-10-30T07:53:59;15.40;1.00
16198;DHT22;8206;51.440;6.914;2022-10-30T07:56:26;15.50;1.00
16198;DHT22;8206;51.440;6.914;2022-10-30T07:58:53;15.60;1.00
16198;DHT22;8206;51.440;6.914;2022-10-30T08:01:19;15.70;1.00
16198;DHT22;8206;51.440;6.914;2022-10-30T08:03:46;15.80;1.00
16198;DHT22;8206;51.440;6.914;2022-10-30T08:06:14;15.90;1.00
16198;DHT22;8206;51.440;6.914;2022-10-30T08:08:41;16.00;1.00
16198;DHT22;8206;51.440;6.914;2022-10-30T08:11:08;16.00;1.00
16198;DHT22;8206;51.440;6.914;2022-10-30T08:13:34;16.10;1.00
16198;DHT22;8206;51.440;6.914;2022-10-30T08:16:01;16.20;1.00
16198;DHT22;8206;51.440;6.914;2022-10-30T08:18:28;16.30;1.00
16198;DHT22;8206;51.440;6.914;2022-10-30T08:20:54;16.40;1.00
16198;DHT22;8206;51.440;6.914;2022-10-30T08:23:23;16.50;1.00
16198;DHT22;8206;51.440;6.914;2022-10-30T08:25:49;16.50;1.00
16198;DHT22;8206;51.440;6.914;2022-10-30T08:28:16;16.60;1.00
16198;DHT22;8206;51.440;6.914;2022-10-30T08:30:43;16.80;1.00
16198;DHT22;8206;51.440;6.914;2022-10-30T08:33:11;16.90;1.00
16198;DHT22;8206;51.440;6.914;2022-10-30T08:35:46;16.90;1.00
16198;DHT22;8206;51.440;6.914;2022-10-30T08:38:12;17.00;1.00
16198;DHT22;8206;51.440;6.914;2022-10-30T08:40:40;17.10;1.00
16198;DHT22;8206;51.440;6.914;2022-10-30T08:43:08;17.00;1.00
16198;DHT22;8206;51.440;6.914;2022-10-30T08:45:35;17.20;1.00
16198;DHT22;8206;51.440;6.914;2022-10-30T08:48:03;17.20;1.00
16198;DHT22;8206;51.440;6.914;2022-10-30T08:50:31;17.30;1.00
16198;DHT22;8206;51.440;6.914;2022-10-30T08:52:59;17.30;1.00
16198;DHT22;8206;51.440;6.914;2022-10-30T08:55:27;17.40;1.00
16198;DHT22;8206;51.440;6.914;2022-10-30T08:57:55;17.50;1.00
16198;DHT22;8206;51.440;6.914;2022-10-30T09:00:22;17.60;1.00
16198;DHT22;8206;51.440;6.914;2022-10-30T09:02:48;17.60;1.00
16198;DHT22;8206;51.440;6.914;2022-10-30T09:05:15;17.70;1.00
16198;DHT22;8206;51.440;6.914;2022-10-30T09:07:42;17.80;1.00
16198;DHT22;8206;51.440;6.914;2022-10-30T09:10:09;17.80;1.00
16198;DHT22;8206;51.440;6.914;2022-10-30T09:12:36;17.90;1.00
16198;DHT22;8206;51.440;6.914;2022-10-30T09:15:05;17.90;1.00
16198;DHT22;8206;51.440;6.914;2022-10-30T09:17:32;18.00;1.00
16198;DHT22;8206;51.440;6.914;2022-10-30T09:19:59;18.00;1.00
16198;DHT22;8206;51.440;6.914;2022-10-30T09:22:25;18.00;1.00
16198;DHT22;8206;51.440;6.914;2022-10-30T09:24:52;18.10;1.00
16198;DHT22;8206;51.440;6.914;2022-10-30T09:27:19;18.20;1.00
16198;DHT22;8206;51.440;6.914;2022-10-30T09:29:46;18.30;1.00
16198;DHT22;8206;51.440;6.914;2022-10-30T09:32:14;18.40;1.00
16198;DHT22;8206;51.440;6.914;2022-10-30T09:34:40;18.40;1.00
16198;DHT22;8206;51.440;6.914;2022-10-30T09:37:07;18.50;1.00
16198;DHT22;8206;51.440;6.914;2022-10-30T09:39:34;18.60;1.00
16198;DHT22;8206;51.440;6.914;2022-10-30T09:42:17;18.70;1.00
16198;DHT22;8206;51.440;6.914;2022-10-30T09:44:57;18.70;1.00
16198;DHT22;8206;51.440;6.914;2022-10-30T09:47:36;18.70;1.00
16198;DHT22;8206;51.440;6.914;2022-10-30T09:50:17;18.80;1.00
16198;DHT22;8206;51.440;6.914;2022-10-30T09:52:59;18.90;1.00
16198;DHT22;8206;51.440;6.914;2022-10-30T09:55:33;19.00;1.00
16198;DHT22;8206;51.440;6.914;2022-10-30T09:58:10;19.00;1.00
16198;DHT22;8206;51.440;6.914;2022-10-30T10:00:47;19.10;1.00
16198;DHT22;8206;51.440;6.914;2022-10-30T10:03:26;19.20;1.00
16198;DHT22;8206;51.440;6.914;2022-10-30T10:05:56;19.20;1.00
16198;DHT22;8206;51.440;6.914;2022-10-30T10:08:29;19.30;1.00
16198;DHT22;8206;51.440;6.914;2022-10-30T10:11:01;19.30;1.00
16198;DHT22;8206;51.440;6.914;2022-10-30T10:13:33;19.40;1.00
16198;DHT22;8206;51.440;6.914;2022-10-30T10:16:09;19.40;1.00
16198;DHT22;8206;51.440;6.914;2022-10-30T10:18:44;19.40;1.00
16198;DHT22;8206;51.440;6.914;2022-10-30T10:21:17;19.40;1.00
16198;DHT22;8206;51.440;6.914;2022-10-30T10:23:48;19.50;1.00
16198;DHT22;8206;51.440;6.914;2022-10-30T10:26:37;19.50;1.00
16198;DHT22;8206;51.440;6.914;2022-10-30T10:29:25;19.60;1.00
16198;DHT22;8206;51.440;6.914;2022-10-30T10:32:05;19.60;1.00
16198;DHT22;8206;51.440;6.914;2022-10-30T10:34:50;19.60;1.00
16198;DHT22;8206;51.440;6.914;2022-10-30T10:37:26;19.70;1.00
16198;DHT22;8206;51.440;6.914;2022-10-30T10:40:08;19.70;1.00
16198;DHT22;8206;51.440;6.914;2022-10-30T10:42:42;19.80;1.00
16198;DHT22;8206;51.440;6.914;2022-10-30T10:45:20;19.90;1.00
16198;DHT22;8206;51.440;6.914;2022-10-30T10:48:19;19.90;1.00
16198;DHT22;8206;51.440;6.914;2022-10-30T10:50:51;19.90;1.00
16198;DHT22;8206;51.440;6.914;2022-10-30T10:53:25;19.90;1.00
16198;DHT22;8206;51.440;6.914;2022-10-30T10:55:57;20.00;1.00
16198;DHT22;8206;51.440;6.914;2022-10-30T10:58:28;20.10;1.00
16198;DHT22;8206;51.440;6.914;2022-10-30T11:00:56;20.20;1.00
16198;DHT22;8206;51.440;6.914;2022-10-30T11:03:28;20.30;1.00
16198;DHT22;8206;51.440;6.914;2022-10-30T11:06:03;20.50;1.00
16198;DHT22;8206;51.440;6.914;2022-10-30T11:08:33;20.50;1.00
16198;DHT22;8206;51.440;6.914;2022-10-30T11:11:02;20.50;1.00
16198;DHT22;8206;51.440;6.914;2022-10-30T11:13:33;20.60;1.00
16198;DHT22;8206;51.440;6.914;2022-10-30T11:16:08;20.70;1.00
16198;DHT22;8206;51.440;6.914;2022-10-30T11:18:39;20.70;1.00
16198;DHT22;8206;51.440;6.914;2022-10-30T11:21:09;20.80;1.00
16198;DHT22;8206;51.440;6.914;2022-10-30T11:23:38;20.70;1.00
16198;DHT22;8206;51.440;6.914;2022-10-30T11:29:04;20.80;1.00
16198;DHT22;8206;51.440;6.914;2022-10-30T11:31:33;20.80;1.00
16198;DHT22;8206;51.440;6.914;2022-10-30T11:34:22;20.80;1.00
16198;DHT22;8206;51.440;6.914;2022-10-30T11:36:51;20.90;1.00
16198;DHT22;8206;51.440;6.914;2022-10-30T11:39:20;20.90;1.00
16198;DHT22;8206;51.440;6.914;2022-10-30T11:41:53;20.90;1.00
16198;DHT22;8206;51.440;6.914;2022-10-30T11:44:22;21.00;1.00
16198;DHT22;8206;51.440;6.914;2022-10-30T11:46:49;21.00;1.00
16198;DHT22;8206;51.440;6.914;2022-10-30T11:49:30;21.10;1.00
16198;DHT22;8206;51.440;6.914;2022-10-30T11:51:59;21.10;1.00
16198;DHT22;8206;51.440;6.914;2022-10-30T11:54:26;21.20;1.00
16198;DHT22;8206;51.440;6.914;2022-10-30T11:56:53;21.20;1.00
16198;DHT22;8206;51.440;6.914;2022-10-30T11:59:22;21.20;1.00
16198;DHT22;8206;51.440;6.914;2022-10-30T12:02:00;21.20;1.00
16198;DHT22;8206;51.440;6.914;2022-10-30T12:04:29;21.20;1.00
16198;DHT22;8206;51.440;6.914;2022-10-30T12:07:16;21.20;1.00
16198;DHT22;8206;51.440;6.914;2022-10-30T12:09:44;21.20;1.00
16198;DHT22;8206;51.440;6.914;2022-10-30T12:12:21;21.10;1.00
16198;DHT22;8206;51.440;6.914;2022-10-30T12:14:49;21.20;1.00
16198;DHT22;8206;51.440;6.914;2022-10-30T12:17:17;21.20;1.00
16198;DHT22;8206;51.440;6.914;2022-10-30T12:19:49;21.20;1.00
16198;DHT22;8206;51.440;6.914;2022-10-30T12:22:31;21.20;1.00
16198;DHT22;8206;51.440;6.914;2022-10-30T12:25:01;21.20;1.00
16198;DHT22;8206;51.440;6.914;2022-10-30T12:27:31;21.20;1.00
16198;DHT22;8206;51.440;6.914;2022-10-30T12:30:04;21.10;1.00
16198;DHT22;8206;51.440;6.914;2022-10-30T12:32:40;21.20;1.00
16198;DHT22;8206;51.440;6.914;2022-10-30T12:35:17;21.20;1.00
16198;DHT22;8206;51.440;6.914;2022-10-30T12:37:52;21.20;1.00
16198;DHT22;8206;51.440;6.914;2022-10-30T12:40:23;21.20;1.00
16198;DHT22;8206;51.440;6.914;2022-10-30T12:42:57;21.20;1.00
16198;DHT22;8206;51.440;6.914;2022-10-30T12:45:29;21.10;1.00
16198;DHT22;8206;51.440;6.914;2022-10-30T12:48:00;21.10;1.00
16198;DHT22;8206;51.440;6.914;2022-10-30T12:50:34;21.20;1.00
16198;DHT22;8206;51.440;6.914;2022-10-30T12:53:10;21.10;1.00
16198;DHT22;8206;51.440;6.914;2022-10-30T12:55:48;21.20;1.00
16198;DHT22;8206;51.440;6.914;2022-10-30T12:58:20;21.20;1.00
16198;DHT22;8206;51.440;6.914;2022-10-30T13:00:55;21.30;1.00
16198;DHT22;8206;51.440;6.914;2022-10-30T13:03:29;21.30;1.00
16198;DHT22;8206;51.440;6.914;2022-10-30T13:06:01;21.20;1.00
16198;DHT22;8206;51.440;6.914;2022-10-30T13:08:36;21.20;1.00
16198;DHT22;8206;51.440;6.914;2022-10-30T13:11:10;21.30;1.00
16198;DHT22;8206;51.440;6.914;2022-10-30T13:13:41;21.20;1.00
16198;DHT22;8206;51.440;6.914;2022-10-30T13:16:13;21.30;1.00
16198;DHT22;8206;51.440;6.914;2022-10-30T13:18:40;21.30;1.00
16198;DHT22;8206;51.440;6.914;2022-10-30T13:21:20;21.30;1.00
16198;DHT22;8206;51.440;6.914;2022-10-30T13:23:53;21.40;1.00
16198;DHT22;8206;51.440;6.914;2022-10-30T13:26:32;21.30;1.00
16198;DHT22;8206;51.440;6.914;2022-10-30T13:29:14;21.40;1.00
16198;DHT22;8206;51.440;6.914;2022-10-30T13:31:51;21.30;1.00
16198;DHT22;8206;51.440;6.914;2022-10-30T13:34:30;21.20;1.00
16198;DHT22;8206;51.440;6.914;2022-10-30T13:37:02;21.30;1.00
16198;DHT22;8206;51.440;6.914;2022-10-30T13:39:37;21.20;1.00
16198;DHT22;8206;51.440;6.914;2022-10-30T13:42:28;21.30;1.00
16198;DHT22;8206;51.440;6.914;2022-10-30T13:45:07;21.20;1.00
16198;DHT22;8206;51.440;6.914;2022-10-30T13:47:41;21.30;1.00
16198;DHT22;8206;51.440;6.914;2022-10-30T13:50:20;21.20;1.00
16198;DHT22;8206;51.440;6.914;2022-10-30T13:52:54;21.30;1.00
16198;DHT22;8206;51.440;6.914;2022-10-30T13:55:25;21.40;1.00
16198;DHT22;8206;51.440;6.914;2022-10-30T13:57:56;21.30;1.00
16198;DHT22;8206;51.440;6.914;2022-10-30T14:00:32;21.40;1.00
16198;DHT22;8206;51.440;6.914;2022-10-30T14:03:14;21.40;1.00
16198;DHT22;8206;51.440;6.914;2022-10-30T14:05:46;21.30;1.00
16198;DHT22;8206;51.440;6.914;2022-10-30T14:08:23;21.40;1.00
16198;DHT22;8206;51.440;6.914;2022-10-30T14:10:55;21.40;1.00
16198;DHT22;8206;51.440;6.914;2022-10-30T14:13:23;21.40;1.00
16198;DHT22;8206;51.440;6.914;2022-10-30T14:15:55;21.40;1.00
16198;DHT22;8206;51.440;6.914;2022-10-30T14:18:31;21.40;1.00
16198;DHT22;8206;51.440;6.914;2022-10-30T14:20:58;21.40;1.00
16198;DHT22;8206;51.440;6.914;2022-10-30T14:23:45;21.40;1.00
16198;DHT22;8206;51.440;6.914;2022-10-30T14:26:19;21.40;1.00
16198;DHT22;8206;51.440;6.914;2022-10-30T14:28:47;21.30;1.00
16198;DHT22;8206;51.440;6.914;2022-10-30T14:31:16;21.20;1.00
16198;DHT22;8206;51.440;6.914;2022-10-30T14:33:45;21.10;1.00
16198;DHT22;8206;51.440;6.914;2022-10-30T14:36:15;21.10;1.00
16198;DHT22;8206;51.440;6.914;2022-10-30T14:38:51;21.10;1.00
16198;DHT22;8206;51.440;6.914;2022-10-30T14:41:46;20.90;1.00
16198;DHT22;8206;51.440;6.914;2022-10-30T14:44:51;20.90;1.00
16198;DHT22;8206;51.440;6.914;2022-10-30T14:47:53;20.90;1.00
16198;DHT22;8206;51.440;6.914;2022-10-30T14:50:51;20.80;1.00
16198;DHT22;8206;51.440;6.914;2022-10-30T14:53:31;20.80;1.00
16198;DHT22;8206;51.440;6.914;2022-10-30T14:56:04;20.70;1.00
16198;DHT22;8206;51.440;6.914;2022-10-30T14:58:35;20.70;1.00
16198;DHT22;8206;51.440;6.914;2022-10-30T15:01:27;20.60;1.00
16198;DHT22;8206;51.440;6.914;2022-10-30T15:04:06;20.50;1.00
16198;DHT22;8206;51.440;6.914;2022-10-30T15:06:48;20.50;1.00
16198;DHT22;8206;51.440;6.914;2022-10-30T15:09:24;20.40;1.00
16198;DHT22;8206;51.440;6.914;2022-10-30T15:12:06;20.30;1.00
16198;DHT22;8206;51.440;6.914;2022-10-30T15:14:39;20.20;1.00
16198;DHT22;8206;51.440;6.914;2022-10-30T15:17:15;20.10;1.00
16198;DHT22;8206;51.440;6.914;2022-10-30T15:19:45;20.10;1.00
16198;DHT22;8206;51.440;6.914;2022-10-30T15:22:16;20.00;1.00
16198;DHT22;8206;51.440;6.914;2022-10-30T15:24:44;19.90;1.00
16198;DHT22;8206;51.440;6.914;2022-10-30T15:27:15;19.80;1.00
16198;DHT22;8206;51.440;6.914;2022-10-30T15:29:47;19.80;1.00
16198;DHT22;8206;51.440;6.914;2022-10-30T15:32:16;19.80;1.00
16198;DHT22;8206;51.440;6.914;2022-10-30T15:34:52;19.70;1.00
16198;DHT22;8206;51.440;6.914;2022-10-30T15:37:19;19.60;1.00
16198;DHT22;8206;51.440;6.914;2022-10-30T15:39:46;19.60;1.00
16198;DHT22;8206;51.440;6.914;2022-10-30T15:42:13;19.50;1.00
16198;DHT22;8206;51.440;6.914;2022-10-30T15:44:42;19.40;1.00
16198;DHT22;8206;51.440;6.914;2022-10-30T15:47:13;19.30;1.00
16198;DHT22;8206;51.440;6.914;2022-10-30T15:49:45;19.20;1.00
16198;DHT22;8206;51.440;6.914;2022-10-30T15:52:14;19.10;1.00
16198;DHT22;8206;51.440;6.914;2022-10-30T15:54:44;19.00;1.00
16198;DHT22;8206;51.440;6.914;2022-10-30T15:57:16;18.90;1.00
16198;DHT22;8206;51.440;6.914;2022-10-30T15:59:49;18.80;1.00
16198;DHT22;8206;51.440;6.914;2022-10-30T16:02:21;18.70;1.00
16198;DHT22;8206;51.440;6.914;2022-10-30T16:04:49;18.60;1.00
16198;DHT22;8206;51.440;6.914;2022-10-30T16:07:18;18.50;1.00
16198;DHT22;8206;51.440;6.914;2022-10-30T16:09:51;18.40;1.00
16198;DHT22;8206;51.440;6.914;2022-10-30T16:12:19;18.30;1.00
16198;DHT22;8206;51.440;6.914;2022-10-30T16:14:46;18.20;1.00
16198;DHT22;8206;51.440;6.914;2022-10-30T16:17:13;18.20;1.00
16198;DHT22;8206;51.440;6.914;2022-10-30T16:19:44;18.10;1.00
16198;DHT22;8206;51.440;6.914;2022-10-30T16:22:15;18.00;1.00
16198;DHT22;8206;51.440;6.914;2022-10-30T16:24:44;17.90;1.00
16198;DHT22;8206;51.440;6.914;2022-10-30T16:27:15;17.80;1.00